Time;durP1;ratioP1;P1;durP2;ratioP2;P2;SDS_P1;SDS_P2;PMS_P1;PMS_P2;Temp;Humidity;BMP_temperature;BMP_pressure;BME280_temperature;BME280_humidity;BME280_pressure;Samples;Min_cycle;Max_cycle;Signal;HPM_P1;HPM_P2
2024/03/10 00:00:41;;;;;;;40.92;18.00;;;9.10;99.90;;;;;;5024369;28;20018;-70
2024/03/10 00:03:08;;;;;;;36.20;15.95;;;9.20;99.90;;;;;;5024224;28;20045;-70
2024/03/10 00:05:39;;;;;;;31.65;13.50;;;9.20;99.90;;;;;;5024548;28;20025;-70
2024/03/10 00:08:05;;;;;;;27.20;11.82;;;9.20;99.90;;;;;;5023643;28;20041;-71
2024/03/10 00:10:37;;;;;;;24.17;11.65;;;9.20;99.90;;;;;;5023739;28;20029;-70
2024/03/10 00:13:03;;;;;;;23.90;11.40;;;9.10;99.90;;;;;;5023562;28;20060;-70
2024/03/10 00:15:30;;;;;;;21.27;10.18;;;9.10;99.90;;;;;;5024695;28;20030;-70
2024/03/10 00:17:56;;;;;;;;;;;9.00;99.90;;;;;;5025468;28;20037;-73
2024/03/10 00:20:21;;;;;;;10.95;6.72;;;9.00;99.90;;;;;;5068073;28;20419;-71
2024/03/10 00:22:47;;;;;;;12.90;6.40;;;9.00;99.90;;;;;;5107763;28;20044;-70
2024/03/10 00:25:15;;;;;;;6.80;4.20;;;9.00;99.90;;;;;;5107561;28;20054;-72
2024/03/10 00:27:41;;;;;;;10.88;4.65;;;9.00;99.90;;;;;;5107488;28;20035;-72
2024/03/10 00:30:09;;;;;;;10.25;4.13;;;9.00;99.90;;;;;;5107594;28;20024;-70
2024/03/10 00:32:35;;;;;;;7.40;4.13;;;9.00;99.90;;;;;;5107299;28;20035;-71
2024/03/10 00:35:02;;;;;;;9.02;4.25;;;8.80;99.90;;;;;;5107325;28;20039;-70
2024/03/10 00:37:28;;;;;;;7.50;4.40;;;8.70;99.90;;;;;;5107672;28;20031;-72
2024/03/10 00:39:54;;;;;;;10.85;4.80;;;8.70;99.90;;;;;;5107456;28;20081;-70
2024/03/10 00:42:22;;;;;;;6.20;4.47;;;8.70;99.90;;;;;;5107035;28;20477;-70
2024/03/10 00:44:48;;;;;;;8.48;4.80;;;8.60;99.90;;;;;;5107895;28;20761;-69
2024/03/10 00:47:13;;;;;;;6.73;4.37;;;8.70;99.90;;;;;;5107670;28;20051;-70
2024/03/10 00:49:39;;;;;;;11.10;4.60;;;8.70;99.90;;;;;;5107448;28;20035;-69
2024/03/10 00:52:09;;;;;;;9.63;4.30;;;8.70;99.90;;;;;;5107506;28;20107;-70
2024/03/10 00:54:35;;;;;;;7.97;3.55;;;8.60;99.90;;;;;;5039546;28;20026;-70
2024/03/10 00:57:01;;;;;;;4.50;2.40;;;8.60;99.90;;;;;;5003544;28;20062;-70
2024/03/10 00:59:27;;;;;;;4.50;2.55;;;8.60;99.90;;;;;;5002571;28;20489;-69
2024/03/10 01:01:52;;;;;;;6.03;2.50;;;8.50;99.90;;;;;;5003941;28;20034;-69
2024/03/10 01:04:18;;;;;;;3.43;2.17;;;8.60;99.90;;;;;;5005878;28;20034;-71
2024/03/10 01:06:45;;;;;;;3.00;1.92;;;8.50;99.90;;;;;;5007908;28;20079;-69
2024/03/10 01:09:11;;;;;;;;;;;8.50;99.90;;;;;;5008041;28;20094;-70
2024/03/10 01:11:39;;;;;;;3.72;2.30;;;8.50;99.90;;;;;;5034544;28;19908;-70
2024/03/10 01:14:05;;;;;;;6.00;1.83;;;8.50;99.90;;;;;;5110619;28;20035;-70
2024/03/10 01:16:32;;;;;;;3.50;2.28;;;8.50;99.90;;;;;;5111557;28;20035;-69
2024/03/10 01:18:57;;;;;;;;;;;8.50;99.90;;;;;;5111765;28;20059;-69
2024/03/10 01:21:23;;;;;;;6.68;1.77;;;8.40;99.90;;;;;;5110040;28;19981;-71
2024/03/10 01:23:48;;;;;;;2.73;1.90;;;8.40;99.90;;;;;;5111311;28;20032;-72
2024/03/10 01:26:14;;;;;;;2.70;1.87;;;8.40;99.90;;;;;;5110566;28;20024;-70
2024/03/10 01:28:40;;;;;;;1.70;1.40;;;8.40;99.90;;;;;;5110743;28;20869;-69
2024/03/10 01:31:09;;;;;;;4.20;2.10;;;8.40;99.90;;;;;;5110634;28;20035;-70
2024/03/10 01:33:39;;;;;;;2.30;1.67;;;8.30;99.90;;;;;;5110841;28;20024;-70
2024/03/10 01:36:06;;;;;;;2.33;1.77;;;8.30;99.90;;;;;;5110588;28;20047;-70
2024/03/10 01:38:32;;;;;;;;;;;8.40;99.90;;;;;;5111021;28;20019;-69
2024/03/10 01:40:58;;;;;;;4.30;1.23;;;8.40;99.90;;;;;;5110870;28;19956;-70
2024/03/10 01:43:24;;;;;;;4.88;1.73;;;8.40;99.90;;;;;;5110247;28;20122;-70
2024/03/10 01:46:06;;;;;;;3.40;1.65;;;8.40;99.90;;;;;;5110129;28;20119;-69
2024/03/10 01:48:37;;;;;;;1.80;1.38;;;8.40;99.90;;;;;;5110685;28;20020;-69
2024/03/10 01:51:04;;;;;;;2.15;1.35;;;8.40;99.90;;;;;;5110895;28;20127;-69
2024/03/10 01:53:31;;;;;;;1.90;1.40;;;8.40;99.90;;;;;;5068254;28;20053;-70
2024/03/10 01:56:03;;;;;;;1.90;1.35;;;8.30;99.90;;;;;;5027321;28;20056;-69
2024/03/10 01:58:31;;;;;;;1.92;0.90;;;8.30;99.90;;;;;;5027033;28;20112;-72
2024/03/10 02:00:59;;;;;;;1.80;1.08;;;8.30;99.90;;;;;;5026245;28;20040;-69
2024/03/10 02:03:25;;;;;;;2.20;0.80;;;8.30;99.90;;;;;;5026152;28;20113;-69
2024/03/10 02:05:52;;;;;;;1.75;1.20;;;8.40;99.90;;;;;;5024834;28;20057;-69
2024/03/10 02:08:17;;;;;;;1.38;1.00;;;8.40;99.90;;;;;;5026177;28;20033;-69
2024/03/10 02:10:48;;;;;;;1.47;0.90;;;8.40;99.90;;;;;;5026352;28;20033;-70
2024/03/10 02:13:18;;;;;;;1.00;0.75;;;8.40;99.90;;;;;;5026353;28;20058;-70
2024/03/10 02:15:57;;;;;;;1.23;0.75;;;8.50;99.90;;;;;;5024440;28;20449;-70
2024/03/10 02:18:23;;;;;;;0.98;0.50;;;8.50;99.90;;;;;;5053685;28;20019;-69
2024/03/10 02:20:50;;;;;;;1.15;0.90;;;8.50;99.90;;;;;;5109966;28;20510;-68
2024/03/10 02:23:16;;;;;;;2.65;0.90;;;8.40;99.90;;;;;;5109847;28;20502;-69
2024/03/10 02:25:42;;;;;;;0.73;0.60;;;8.40;99.90;;;;;;5109744;28;20098;-69
2024/03/10 02:28:10;;;;;;;6.75;2.38;;;8.40;99.90;;;;;;5109980;28;20024;-70
2024/03/10 02:30:43;;;;;;;8.60;1.27;;;8.30;99.90;;;;;;5110118;28;20027;-69
2024/03/10 02:47:13;;;;;;;0.32;0.32;;;8.10;99.90;;;;;;5110164;28;20518;-69
2024/03/10 02:49:43;;;;;;;3.00;0.50;;;8.10;99.90;;;;;;5094329;28;20036;-69
2024/03/10 02:52:09;;;;;;;2.50;0.32;;;8.10;99.90;;;;;;5109685;28;20062;-70
2024/03/10 02:54:39;;;;;;;3.88;0.60;;;8.00;99.90;;;;;;5109468;28;20447;-70
2024/03/10 02:57:06;;;;;;;1.33;0.40;;;8.00;99.90;;;;;;5109461;28;20028;-69
2024/03/10 02:59:32;;;;;;;1.13;0.30;;;7.90;99.90;;;;;;5109748;28;20394;-70
2024/03/10 03:01:58;;;;;;;1.00;0.40;;;7.80;99.90;;;;;;5109491;28;20026;-69
2024/03/10 03:04:28;;;;;;;0.47;0.30;;;7.80;99.90;;;;;;5109278;28;20023;-69
2024/03/10 03:06:54;;;;;;;0.68;0.30;;;7.80;99.90;;;;;;5093658;28;20042;-70
2024/03/10 03:09:20;;;;;;;0.30;0.30;;;7.80;99.90;;;;;;5109617;28;20111;-69
2024/03/10 03:11:47;;;;;;;0.32;0.30;;;7.60;99.90;;;;;;5109329;28;20028;-69
2024/03/10 03:14:13;;;;;;;0.65;0.30;;;7.60;99.90;;;;;;5107816;28;20080;-68
2024/03/10 03:16:42;;;;;;;0.65;0.50;;;7.60;99.90;;;;;;5109167;28;20023;-69
2024/03/10 03:19:08;;;;;;;0.85;0.40;;;7.40;99.90;;;;;;5109139;28;20430;-71
2024/03/10 03:21:34;;;;;;;0.60;0.50;;;7.40;99.90;;;;;;5108671;28;20065;-69
2024/03/10 03:24:00;;;;;;;0.70;0.50;;;7.20;99.90;;;;;;5109192;28;20035;-72
2024/03/10 03:26:26;;;;;;;1.23;0.40;;;7.20;99.90;;;;;;5108114;28;20035;-70
2024/03/10 03:28:52;;;;;;;2.35;0.50;;;7.20;99.90;;;;;;5108764;28;20075;-72
2024/03/10 03:31:17;;;;;;;1.40;0.40;;;7.20;99.90;;;;;;5109693;28;20059;-72
2024/03/10 03:33:44;;;;;;;1.07;0.47;;;7.10;99.90;;;;;;5110085;28;20061;-71
2024/03/10 03:36:09;;;;;;;0.55;0.40;;;7.20;99.90;;;;;;5108575;28;20020;-70
2024/03/10 03:38:35;;;;;;;3.20;0.73;;;7.10;99.90;;;;;;5107927;28;20105;-70
2024/03/10 03:41:01;;;;;;;1.50;0.40;;;7.00;99.90;;;;;;5107848;28;20089;-71
2024/03/10 03:43:26;;;;;;;1.53;0.50;;;7.00;99.90;;;;;;5108441;28;20400;-69
2024/03/10 03:45:53;;;;;;;0.77;0.37;;;7.00;99.90;;;;;;5107897;28;20706;-69
2024/03/10 03:48:19;;;;;;;2.38;0.40;;;7.00;99.90;;;;;;5108335;28;20028;-70
2024/03/10 03:50:45;;;;;;;0.73;0.30;;;7.00;99.90;;;;;;5107828;28;20024;-69
2024/03/10 03:53:11;;;;;;;0.57;0.40;;;7.00;99.90;;;;;;5076864;28;20037;-69
2024/03/10 03:55:37;;;;;;;1.60;0.50;;;6.90;99.90;;;;;;5024337;28;20442;-69
2024/03/10 03:58:03;;;;;;;1.52;0.43;;;6.90;99.90;;;;;;5024561;28;20043;-70
2024/03/10 04:00:29;;;;;;;1.03;0.40;;;6.80;99.90;;;;;;5024938;28;20029;-70
2024/03/10 04:02:55;;;;;;;1.60;0.30;;;6.90;99.90;;;;;;5024893;28;20382;-69
2024/03/10 04:05:21;;;;;;;0.30;0.30;;;6.80;99.90;;;;;;5024249;28;20469;-70
2024/03/10 04:07:47;;;;;;;0.95;0.60;;;6.90;99.90;;;;;;5024710;28;20041;-69
2024/03/10 04:10:12;;;;;;;0.40;0.37;;;6.80;99.90;;;;;;5023663;28;20033;-70
2024/03/10 04:12:38;;;;;;;3.60;0.37;;;6.80;99.90;;;;;;5024617;28;20456;-71
2024/03/10 04:15:07;;;;;;;0.88;0.40;;;6.80;99.90;;;;;;5024259;28;20029;-70
2024/03/10 04:17:33;;;;;;;0.30;0.30;;;6.70;99.90;;;;;;5024459;28;20037;-69
2024/03/10 04:19:59;;;;;;;2.95;0.57;;;6.80;99.90;;;;;;5024828;28;20090;-72
2024/03/10 04:22:25;;;;;;;3.60;0.50;;;6.70;99.90;;;;;;5003620;28;20053;-69
2024/03/10 04:24:51;;;;;;;1.40;0.50;;;6.80;99.90;;;;;;4995997;28;20573;-70
2024/03/10 04:27:16;;;;;;;0.47;0.47;;;6.80;99.90;;;;;;4992596;28;20648;-69
2024/03/10 04:29:42;;;;;;;0.20;0.20;;;6.80;99.90;;;;;;4993584;28;20038;-74
2024/03/10 04:32:08;;;;;;;0.40;0.30;;;6.70;99.90;;;;;;5001762;28;20034;-69
2024/03/10 04:34:34;;;;;;;0.30;0.30;;;6.80;99.90;;;;;;4995140;28;20301;-69
2024/03/10 04:37:00;;;;;;;2.45;0.50;;;6.80;99.90;;;;;;4996053;28;20030;-70
2024/03/10 04:39:26;;;;;;;0.70;0.30;;;6.80;99.90;;;;;;4994565;28;20083;-68
2024/03/10 04:41:54;;;;;;;0.40;0.30;;;6.90;99.90;;;;;;4987220;28;20042;-69
2024/03/10 04:44:20;;;;;;;5.10;0.40;;;6.90;99.90;;;;;;4990509;28;20069;-69
2024/03/10 04:46:47;;;;;;;0.50;0.32;;;6.90;99.90;;;;;;4995393;28;20545;-68
2024/03/10 04:49:13;;;;;;;0.65;0.50;;;6.90;99.90;;;;;;4993696;28;20117;-69
2024/03/10 04:51:41;;;;;;;2.05;0.50;;;7.00;99.90;;;;;;5012583;28;20149;-69
2024/03/10 04:54:09;;;;;;;0.40;0.40;;;6.80;99.90;;;;;;4995776;28;20081;-70
2024/03/10 04:56:35;;;;;;;4.68;0.45;;;6.80;99.90;;;;;;4993850;28;20136;-70
2024/03/10 04:59:02;;;;;;;2.08;0.35;;;6.80;99.90;;;;;;4997573;28;20037;-70
2024/03/10 05:01:28;;;;;;;1.45;0.40;;;6.80;99.90;;;;;;4996132;28;20404;-70
2024/03/10 05:03:54;;;;;;;2.87;0.40;;;6.80;99.90;;;;;;4995394;28;20428;-69
2024/03/10 05:06:19;;;;;;;0.30;0.30;;;6.80;99.90;;;;;;4992462;28;20030;-69
2024/03/10 05:08:46;;;;;;;5.73;0.40;;;6.90;99.90;;;;;;4991608;28;20056;-69
2024/03/10 05:11:15;;;;;;;0.38;0.38;;;7.00;99.90;;;;;;4994739;28;20035;-70
2024/03/10 05:13:41;;;;;;;0.85;0.40;;;7.10;99.90;;;;;;4993500;28;20042;-70
2024/03/10 05:16:07;;;;;;;0.30;0.30;;;7.10;99.90;;;;;;5010269;28;20028;-71
2024/03/10 05:18:33;;;;;;;0.40;0.40;;;7.10;99.90;;;;;;4991967;28;20064;-71
2024/03/10 05:20:59;;;;;;;0.30;0.30;;;7.20;99.90;;;;;;4993964;28;20453;-73
2024/03/10 05:23:27;;;;;;;1.90;0.50;;;7.10;99.90;;;;;;4996040;28;20073;-70
2024/03/10 05:25:53;;;;;;;0.95;0.52;;;7.00;99.90;;;;;;4994712;28;20080;-69
2024/03/10 05:28:18;;;;;;;2.40;1.20;;;7.10;99.90;;;;;;4990057;28;20484;-72
2024/03/10 05:30:44;;;;;;;1.67;0.93;;;7.10;99.90;;;;;;4992850;28;20437;-73
2024/03/10 05:33:10;;;;;;;0.95;0.75;;;7.00;99.90;;;;;;4994709;28;20468;-71
2024/03/10 05:35:37;;;;;;;0.60;0.50;;;6.90;99.90;;;;;;4992659;28;20069;-73
2024/03/10 05:38:03;;;;;;;1.35;0.57;;;6.90;99.90;;;;;;4992673;28;20026;-69
2024/03/10 05:40:29;;;;;;;1.05;0.43;;;6.80;99.90;;;;;;4990231;28;20030;-70
2024/03/10 05:42:55;;;;;;;0.82;0.60;;;6.80;99.90;;;;;;4994950;28;20107;-69
2024/03/10 05:45:21;;;;;;;1.73;0.50;;;6.80;99.90;;;;;;4995121;28;20265;-69
2024/03/10 05:47:48;;;;;;;0.43;0.43;;;6.80;99.90;;;;;;4990523;28;20034;-70
2024/03/10 05:50:14;;;;;;;1.48;0.57;;;6.80;99.90;;;;;;4993354;28;20281;-71
2024/03/10 05:52:40;;;;;;;0.47;0.40;;;6.80;99.90;;;;;;5000705;28;20026;-71
2024/03/10 05:55:07;;;;;;;0.60;0.60;;;6.80;99.90;;;;;;4994116;28;20053;-69
2024/03/10 05:57:33;;;;;;;;;;;6.90;99.90;;;;;;4995112;28;20050;-73
2024/03/10 05:59:59;;;;;;;4.68;0.82;;;6.80;99.90;;;;;;4992574;28;19914;-69
2024/03/10 06:02:25;;;;;;;2.30;0.60;;;6.90;99.90;;;;;;4994874;28;20042;-70
2024/03/10 06:04:50;;;;;;;1.25;0.70;;;6.80;99.90;;;;;;4994201;28;20081;-70
2024/03/10 06:07:16;;;;;;;1.63;0.83;;;6.90;99.90;;;;;;4994878;28;20026;-72
2024/03/10 06:09:42;;;;;;;0.73;0.50;;;7.00;99.90;;;;;;4997933;28;20046;-69
2024/03/10 06:12:08;;;;;;;0.67;0.40;;;6.90;99.90;;;;;;4994072;28;20117;-70
2024/03/10 06:14:34;;;;;;;1.65;0.57;;;6.90;99.90;;;;;;4997342;28;20058;-69
2024/03/10 06:17:00;;;;;;;1.25;0.63;;;6.80;99.90;;;;;;4997976;28;20065;-69
2024/03/10 06:27:42;;;;;;;1.35;0.55;;;6.70;99.90;;;;;;4999557;28;20470;-69
2024/03/10 06:30:10;;;;;;;1.50;0.98;;;6.70;99.90;;;;;;4992501;28;20448;-69
2024/03/10 06:32:37;;;;;;;3.00;1.05;;;6.80;99.90;;;;;;4995191;28;20531;-69
2024/03/10 06:35:03;;;;;;;2.45;1.33;;;6.80;99.90;;;;;;4990412;28;20062;-70
2024/03/10 06:37:28;;;;;;;1.75;0.93;;;6.80;99.90;;;;;;4994544;28;20076;-70
2024/03/10 06:39:54;;;;;;;2.00;0.90;;;6.80;99.90;;;;;;4997558;28;20145;-69
2024/03/10 06:42:22;;;;;;;0.90;0.70;;;6.70;99.90;;;;;;5012389;28;20040;-74
2024/03/10 06:44:49;;;;;;;1.33;0.80;;;6.80;99.90;;;;;;4993940;28;20312;-74
2024/03/10 06:47:15;;;;;;;1.15;0.90;;;6.60;99.90;;;;;;4994095;28;20128;-73
2024/03/10 06:49:41;;;;;;;2.30;1.10;;;6.70;99.90;;;;;;4993151;28;20518;-73
2024/03/10 06:52:06;;;;;;;1.88;1.42;;;6.80;99.90;;;;;;5002664;28;20281;-68
2024/03/10 06:54:32;;;;;;;4.40;1.20;;;6.90;99.90;;;;;;4996125;28;20037;-74
2024/03/10 06:56:58;;;;;;;1.87;1.00;;;6.80;99.90;;;;;;4999246;28;20046;-70
2024/03/10 06:59:25;;;;;;;2.63;0.80;;;6.90;99.90;;;;;;4997164;28;20408;-69
2024/03/10 07:01:55;;;;;;;1.70;1.50;;;6.90;99.90;;;;;;4996338;28;20026;-69
2024/03/10 07:04:21;;;;;;;2.17;0.90;;;6.90;99.90;;;;;;4993992;28;20219;-69
2024/03/10 07:06:49;;;;;;;1.48;1.00;;;6.90;99.90;;;;;;4997122;28;20035;-73
2024/03/10 07:09:15;;;;;;;1.70;1.10;;;6.90;99.90;;;;;;4997671;28;20037;-69
2024/03/10 07:11:42;;;;;;;1.95;1.10;;;6.90;99.90;;;;;;4996605;28;20420;-69
2024/03/10 07:14:08;;;;;;;2.35;1.63;;;6.90;99.90;;;;;;4994977;28;20034;-72
2024/03/10 07:16:35;;;;;;;3.47;1.60;;;6.90;99.90;;;;;;4996178;28;20033;-74
2024/03/10 07:19:01;;;;;;;1.67;1.58;;;7.00;99.90;;;;;;5002506;28;20030;-70
2024/03/10 07:21:27;;;;;;;1.45;1.35;;;7.00;99.90;;;;;;4988595;28;20083;-74
2024/03/10 07:23:53;;;;;;;3.10;1.40;;;7.00;99.90;;;;;;4991998;28;20129;-71
2024/03/10 07:26:19;;;;;;;1.77;1.63;;;7.00;99.90;;;;;;4992233;28;20708;-73
2024/03/10 07:28:45;;;;;;;2.63;1.90;;;7.00;99.90;;;;;;4996439;28;20167;-73
2024/03/10 07:31:11;;;;;;;1.90;1.48;;;7.10;99.90;;;;;;4994400;28;21156;-70
2024/03/10 07:33:37;;;;;;;3.22;2.42;;;7.10;99.90;;;;;;4991858;28;20154;-75
2024/03/10 07:36:04;;;;;;;;;;;7.10;99.90;;;;;;4992125;28;20057;-69
2024/03/10 07:38:30;;;;;;;1.95;1.20;;;7.10;99.90;;;;;;4996134;28;19979;-68
2024/03/10 07:40:56;;;;;;;1.27;0.95;;;7.10;99.90;;;;;;4998969;28;20030;-71
2024/03/10 07:43:22;;;;;;;3.00;1.23;;;7.10;99.90;;;;;;4992419;28;20605;-73
2024/03/10 07:45:49;;;;;;;1.70;1.60;;;7.10;99.90;;;;;;4992969;28;20636;-72
2024/03/10 07:48:16;;;;;;;4.00;1.58;;;7.10;99.90;;;;;;4990937;28;20063;-71
2024/03/10 07:50:42;;;;;;;2.45;1.88;;;7.20;99.90;;;;;;5006766;28;20057;-70
2024/03/10 07:53:09;;;;;;;;;;;7.20;99.90;;;;;;5007227;28;20029;-73
2024/03/10 07:55:35;;;;;;;4.57;1.20;;;7.10;99.90;;;;;;5001351;28;19915;-71
2024/03/10 07:58:00;;;;;;;1.90;1.40;;;7.20;99.90;;;;;;4994724;28;20488;-70
2024/03/10 08:00:26;;;;;;;3.60;1.75;;;7.20;99.90;;;;;;4993356;28;20068;-69
2024/03/10 08:02:56;;;;;;;2.87;2.33;;;7.10;99.90;;;;;;4993483;28;20053;-72
2024/03/10 08:05:22;;;;;;;3.03;2.40;;;7.10;99.90;;;;;;4993580;28;20290;-70
2024/03/10 08:07:49;;;;;;;2.33;1.63;;;7.10;99.90;;;;;;4994292;28;20041;-69
2024/03/10 08:10:16;;;;;;;4.65;2.85;;;7.10;99.90;;;;;;4991428;28;20026;-69
2024/03/10 08:12:46;;;;;;;2.33;1.77;;;7.20;99.90;;;;;;4995730;28;20477;-69
2024/03/10 08:15:13;;;;;;;3.08;1.55;;;7.20;99.90;;;;;;4994729;28;20509;-71
2024/03/10 08:17:39;;;;;;;2.83;1.90;;;7.30;99.90;;;;;;4994017;28;20022;-67
2024/03/10 08:20:08;;;;;;;2.47;1.67;;;7.30;99.90;;;;;;4995214;28;20027;-69
2024/03/10 08:22:37;;;;;;;2.05;1.52;;;7.30;99.90;;;;;;4987558;28;20046;-74
2024/03/10 08:25:04;;;;;;;2.03;1.45;;;7.40;99.90;;;;;;4999120;28;20026;-70
2024/03/10 08:27:31;;;;;;;4.05;1.90;;;7.40;99.90;;;;;;4992603;28;20406;-72
2024/03/10 08:29:56;;;;;;;1.83;1.25;;;7.40;99.90;;;;;;4995781;28;20034;-72
2024/03/10 08:32:26;;;;;;;1.43;1.10;;;7.40;99.90;;;;;;4994117;28;20843;-74
2024/03/10 08:34:53;;;;;;;3.65;1.75;;;7.50;99.90;;;;;;4993400;28;20078;-75
2024/03/10 08:37:19;;;;;;;4.07;1.92;;;7.40;99.90;;;;;;5043752;28;20045;-70
2024/03/10 08:39:47;;;;;;;4.45;2.00;;;7.50;99.90;;;;;;4996803;28;20105;-69
2024/03/10 08:42:15;;;;;;;3.33;1.85;;;7.40;99.90;;;;;;4987351;28;20068;-68
2024/03/10 08:44:42;;;;;;;3.25;1.90;;;7.40;99.90;;;;;;4997222;28;20034;-68
2024/03/10 08:47:08;;;;;;;3.97;2.72;;;7.40;99.90;;;;;;4993250;28;20014;-68
2024/03/10 08:49:33;;;;;;;5.10;2.07;;;7.40;99.90;;;;;;4997987;28;20445;-69
2024/03/10 08:52:01;;;;;;;3.25;2.08;;;7.40;99.90;;;;;;4993083;28;20035;-68
2024/03/10 08:54:29;;;;;;;3.13;1.52;;;7.50;99.90;;;;;;5002995;28;20034;-69
2024/03/10 08:56:57;;;;;;;4.55;1.40;;;7.50;99.90;;;;;;4993730;28;20084;-69
2024/03/10 08:59:24;;;;;;;1.88;1.50;;;7.60;99.90;;;;;;4994260;28;20758;-68
2024/03/10 09:01:51;;;;;;;1.75;1.40;;;7.50;99.90;;;;;;4995047;28;20030;-70
2024/03/10 09:04:17;;;;;;;3.25;1.20;;;7.50;99.90;;;;;;4993713;28;20115;-68
2024/03/10 09:06:43;;;;;;;2.22;1.00;;;7.60;99.90;;;;;;4993206;28;20401;-67
2024/03/10 09:09:12;;;;;;;1.63;1.33;;;7.70;99.90;;;;;;4993463;28;20041;-67
2024/03/10 09:11:38;;;;;;;2.10;1.38;;;7.80;99.90;;;;;;4992955;28;20033;-68
2024/03/10 09:14:03;;;;;;;3.33;2.20;;;7.90;99.90;;;;;;4992633;28;20034;-69
2024/03/10 09:16:29;;;;;;;4.03;1.33;;;7.90;99.90;;;;;;5011583;28;20440;-67
2024/03/10 09:18:55;;;;;;;2.88;1.40;;;8.00;99.90;;;;;;4986736;28;20109;-69
2024/03/10 09:21:20;;;;;;;2.83;1.60;;;8.00;99.90;;;;;;4991879;28;20635;-68
2024/03/10 09:23:46;;;;;;;2.07;1.23;;;8.10;99.90;;;;;;4986390;28;20490;-68
2024/03/10 09:26:13;;;;;;;2.83;1.60;;;8.20;99.90;;;;;;4997450;28;20033;-71
2024/03/10 09:28:44;;;;;;;1.88;1.30;;;8.30;99.90;;;;;;4997276;28;20997;-68
2024/03/10 09:31:11;;;;;;;3.72;1.70;;;8.40;99.90;;;;;;4995063;28;20034;-70
2024/03/10 09:33:38;;;;;;;2.65;1.70;;;8.50;99.90;;;;;;4996699;28;20624;-70
2024/03/10 09:36:05;;;;;;;4.50;1.35;;;8.50;99.90;;;;;;4998083;28;20038;-68
2024/03/10 09:38:31;;;;;;;2.50;1.20;;;8.50;99.90;;;;;;4998316;28;20711;-69
2024/03/10 09:40:59;;;;;;;5.05;1.40;;;8.50;99.90;;;;;;4997558;28;20030;-68
2024/03/10 09:43:25;;;;;;;2.28;1.55;;;8.60;99.90;;;;;;4995688;28;20103;-69
2024/03/10 09:45:54;;;;;;;;;;;8.70;99.90;;;;;;4996577;28;20562;-67
2024/03/10 09:48:22;;;;;;;4.72;1.40;;;8.80;99.90;;;;;;4995671;28;19920;-69
2024/03/10 09:50:49;;;;;;;2.35;1.65;;;8.80;99.90;;;;;;4992008;28;20057;-67
2024/03/10 09:53:17;;;;;;;2.83;1.40;;;8.90;99.90;;;;;;5004568;28;20172;-67
2024/03/10 09:55:43;;;;;;;3.28;1.70;;;8.90;99.90;;;;;;4998675;28;20106;-71
2024/03/10 09:58:15;;;;;;;2.92;1.63;;;9.00;99.90;;;;;;4997484;28;20044;-75
2024/03/10 10:00:45;;;;;;;2.40;1.67;;;9.00;99.90;;;;;;4996081;28;20037;-75
2024/03/10 10:03:12;;;;;;;1.65;1.40;;;9.10;99.90;;;;;;5003064;28;20553;-75
2024/03/10 10:05:44;;;;;;;2.05;1.58;;;9.20;99.90;;;;;;5003185;28;20143;-75
2024/03/10 10:08:10;;;;;;;1.52;1.20;;;9.20;99.90;;;;;;5002157;28;20034;-73
2024/03/10 10:10:52;;;;;;;1.83;1.20;;;9.40;99.90;;;;;;4994046;28;20038;-74
2024/03/10 10:13:28;;;;;;;1.70;1.27;;;9.50;99.90;;;;;;4994862;28;20035;-73
2024/03/10 10:15:54;;;;;;;4.45;1.50;;;9.50;99.90;;;;;;4997462;28;20117;-71
2024/03/10 10:18:22;;;;;;;1.30;1.10;;;9.50;99.90;;;;;;4998873;28;20455;-67
2024/03/10 10:20:55;;;;;;;2.78;1.25;;;9.70;99.90;;;;;;4995290;28;20042;-68
2024/03/10 10:23:23;;;;;;;3.33;1.40;;;9.90;99.90;;;;;;5002749;28;20042;-65
2024/03/10 10:26:12;;;;;;;3.47;1.48;;;10.20;99.90;;;;;;5008276;28;20026;-68
2024/03/10 10:28:44;;;;;;;2.13;1.20;;;10.20;99.90;;;;;;5000073;28;20065;-68
2024/03/10 10:31:15;;;;;;;2.45;1.27;;;10.40;99.90;;;;;;5000519;28;20041;-68
2024/03/10 10:33:45;;;;;;;1.40;0.90;;;10.40;99.90;;;;;;5032187;28;20118;-68
2024/03/10 10:36:11;;;;;;;5.78;1.00;;;10.50;99.90;;;;;;5054598;28;20025;-70
2024/03/10 10:38:45;;;;;;;1.40;0.80;;;10.50;99.90;;;;;;5059600;28;20111;-69
2024/03/10 10:41:11;;;;;;;1.58;0.88;;;10.50;99.90;;;;;;5065312;28;20136;-68
2024/03/10 10:43:38;;;;;;;1.95;0.85;;;10.70;99.90;;;;;;5059581;28;20094;-69
2024/03/10 10:46:10;;;;;;;0.57;0.57;;;10.80;99.90;;;;;;5058460;28;20068;-69
2024/03/10 10:48:36;;;;;;;1.23;0.98;;;11.00;99.90;;;;;;5059152;28;20071;-70
2024/03/10 10:51:03;;;;;;;1.23;0.60;;;11.20;99.90;;;;;;5056882;28;20039;-72
2024/03/10 10:53:29;;;;;;;1.40;0.70;;;11.10;99.90;;;;;;5059740;28;20037;-69
2024/03/10 10:55:57;;;;;;;3.05;0.70;;;11.20;99.90;;;;;;5058244;28;20028;-68
2024/03/10 10:58:27;;;;;;;0.90;0.70;;;11.20;99.90;;;;;;5060666;28;20134;-69
2024/03/10 11:00:58;;;;;;;1.10;0.82;;;11.10;99.90;;;;;;5062338;28;20029;-70
2024/03/10 11:03:25;;;;;;;4.43;1.10;;;11.30;99.90;;;;;;5058069;28;20032;-70
2024/03/10 11:06:02;;;;;;;1.80;0.80;;;11.60;99.90;;;;;;5058817;28;20047;-69
2024/03/10 11:08:33;;;;;;;0.90;0.70;;;11.60;99.90;;;;;;5061020;28;20354;-68
2024/03/10 11:10:58;;;;;;;1.50;1.10;;;11.90;99.90;;;;;;5059035;28;20028;-70
2024/03/10 11:13:25;;;;;;;2.45;1.40;;;12.20;99.90;;;;;;5057046;28;20036;-68
2024/03/10 11:16:09;;;;;;;1.52;0.90;;;12.30;99.90;;;;;;5059229;28;20037;-67
2024/03/10 11:18:38;;;;;;;2.55;1.20;;;11.90;99.90;;;;;;5053079;28;20037;-68
2024/03/10 11:21:18;;;;;;;5.10;2.05;;;12.00;99.90;;;;;;5060664;28;20032;-68
2024/03/10 11:23:46;;;;;;;2.60;1.20;;;12.30;99.90;;;;;;5050794;28;20535;-68
2024/03/10 11:26:25;;;;;;;1.25;0.85;;;12.70;99.90;;;;;;5058966;28;20059;-68
2024/03/10 11:28:58;;;;;;;1.40;0.80;;;12.80;97.60;;;;;;5053244;28;20056;-68
2024/03/10 11:31:26;;;;;;;3.70;0.95;;;12.80;97.10;;;;;;5059191;28;20031;-68
2024/03/10 11:33:53;;;;;;;1.90;0.90;;;12.90;96.40;;;;;;5062941;28;20086;-70
2024/03/10 11:36:22;;;;;;;2.15;1.35;;;13.20;97.40;;;;;;5061585;28;20035;-69
2024/03/10 11:38:49;;;;;;;1.45;0.73;;;13.30;95.60;;;;;;5070089;28;20179;-69
2024/03/10 11:41:15;;;;;;;1.33;0.75;;;13.30;95.20;;;;;;5056542;28;20064;-69
2024/03/10 11:43:42;;;;;;;0.40;0.40;;;13.00;96.30;;;;;;5053068;28;20191;-71
2024/03/10 11:46:35;;;;;;;;;;;13.40;96.70;;;;;;5061750;28;20032;-72
2024/03/10 11:49:01;;;;;;;1.42;0.40;;;13.30;95.80;;;;;;5053323;28;19912;-74
2024/03/10 11:51:33;;;;;;;0.77;0.50;;;13.60;95.30;;;;;;5050426;28;20064;-75
2024/03/10 11:54:00;;;;;;;1.00;0.60;;;13.60;94.00;;;;;;5067559;28;20040;-70
2024/03/10 11:56:26;;;;;;;0.82;0.82;;;13.60;93.20;;;;;;5058954;28;20153;-69
2024/03/10 11:58:52;;;;;;;0.57;0.40;;;13.60;93.80;;;;;;5059563;28;20112;-69
2024/03/10 12:01:19;;;;;;;0.90;0.50;;;13.70;92.90;;;;;;5056564;28;20563;-67
2024/03/10 12:03:49;;;;;;;1.20;0.40;;;13.90;93.00;;;;;;5058026;28;20071;-69
2024/03/10 12:06:16;;;;;;;2.63;0.70;;;13.80;92.20;;;;;;5057568;28;20115;-69
2024/03/10 12:08:42;;;;;;;3.25;1.20;;;14.70;93.10;;;;;;5055647;28;20064;-69
2024/03/10 12:11:12;;;;;;;0.93;0.50;;;14.80;91.60;;;;;;5055682;28;20028;-71
2024/03/10 12:13:42;;;;;;;4.72;1.42;;;14.60;90.80;;;;;;5054223;28;20112;-68
2024/03/10 12:16:10;;;;;;;1.25;0.80;;;14.20;90.90;;;;;;5055871;28;20040;-70
2024/03/10 12:18:37;;;;;;;3.38;0.60;;;14.40;91.80;;;;;;5055585;28;20504;-69
2024/03/10 12:21:10;;;;;;;;;;;14.90;91.10;;;;;;5054200;28;20027;-71
2024/03/10 12:23:40;;;;;;;2.70;0.70;;;15.20;90.50;;;;;;5059319;28;20324;-70
2024/03/10 12:26:10;;;;;;;3.28;1.05;;;14.80;90.80;;;;;;5054257;28;20031;-70
2024/03/10 12:28:40;;;;;;;3.63;0.85;;;14.70;91.30;;;;;;5054219;28;20040;-69
2024/03/10 12:31:13;;;;;;;1.50;0.82;;;15.00;90.10;;;;;;5058311;28;20060;-68
2024/03/10 12:33:39;;;;;;;3.15;0.80;;;15.40;91.40;;;;;;5056096;28;20029;-70
2024/03/10 12:36:14;;;;;;;3.45;0.88;;;15.80;89.70;;;;;;5049870;28;20032;-69
2024/03/10 12:38:41;;;;;;;2.17;0.77;;;15.20;87.10;;;;;;5052997;28;20041;-69
2024/03/10 12:41:07;;;;;;;3.17;1.00;;;15.20;91.00;;;;;;5049970;28;20056;-70
2024/03/10 12:43:33;;;;;;;4.55;0.98;;;15.20;90.40;;;;;;5053102;28;20071;-73
2024/03/10 12:46:01;;;;;;;5.75;1.05;;;15.40;89.60;;;;;;5054328;28;20029;-69
2024/03/10 12:48:28;;;;;;;4.35;0.70;;;15.60;88.60;;;;;;5052728;28;20670;-70
2024/03/10 12:50:56;;;;;;;2.58;0.85;;;15.60;89.10;;;;;;5050406;28;20767;-69
2024/03/10 12:53:23;;;;;;;1.50;0.70;;;15.50;90.30;;;;;;5056961;28;20040;-70
2024/03/10 12:55:48;;;;;;;6.97;0.85;;;15.20;89.70;;;;;;5054773;28;20577;-70
2024/03/10 12:58:14;;;;;;;4.30;1.27;;;15.10;88.60;;;;;;5051816;28;20033;-70
2024/03/10 13:00:42;;;;;;;3.67;1.03;;;15.10;87.50;;;;;;5060679;28;20029;-69
2024/03/10 13:03:08;;;;;;;3.15;0.90;;;15.20;90.30;;;;;;5063226;28;20139;-72
2024/03/10 13:05:36;;;;;;;3.92;1.00;;;15.00;86.30;;;;;;5052956;28;20067;-69
2024/03/10 13:08:01;;;;;;;2.97;0.85;;;14.80;88.50;;;;;;5054354;28;20041;-69
2024/03/10 13:10:30;;;;;;;3.30;1.37;;;14.60;89.00;;;;;;5055535;28;20087;-69
2024/03/10 13:12:56;;;;;;;4.28;1.02;;;14.50;90.00;;;;;;5054740;28;20405;-71
2024/03/10 13:15:22;;;;;;;4.07;1.05;;;14.70;88.60;;;;;;5058329;28;20035;-73
2024/03/10 13:17:47;;;;;;;2.00;0.83;;;14.90;86.40;;;;;;5052157;28;20037;-72
2024/03/10 13:20:16;;;;;;;3.45;0.75;;;14.90;90.10;;;;;;5051737;28;20268;-71